Time;durP1;ratioP1;P1;durP2;ratioP2;P2;SDS_P1;SDS_P2;PMS_P1;PMS_P2;Temp;Humidity;BMP_temperature;BMP_pressure;BME280_temperature;BME280_humidity;BME280_pressure;Samples;Min_cycle;Max_cycle;Signal;HPM_P1;HPM_P2
2023/05/10 00:01:21;;;;;;;2.03;1.83;;;19.70;70.10;;;;;;5015340;28;20569;-29
2023/05/10 00:03:48;;;;;;;2.15;1.90;;;;;;;;;;5015797;28;20049;-30
2023/05/10 00:06:16;;;;;;;2.30;2.10;;;20.20;61.70;;;;;;5015312;28;20053;-30
2023/05/10 00:08:42;;;;;;;2.58;2.08;;;19.60;75.30;;;;;;5015875;28;20082;-30
2023/05/10 00:11:09;;;;;;;2.78;2.00;;;20.70;76.00;;;;;;5015738;28;20058;-29
2023/05/10 00:13:36;;;;;;;2.25;2.05;;;;;;;;;;5014869;28;20081;-30
2023/05/10 00:16:03;;;;;;;2.30;2.10;;;20.00;75.80;;;;;;5015466;28;20056;-29
2023/05/10 00:18:30;;;;;;;2.20;2.00;;;;;;;;;;5015448;28;20141;-31
2023/05/10 00:20:57;;;;;;;2.00;1.80;;;19.90;75.80;;;;;;5015226;28;20050;-29
2023/05/10 00:23:25;;;;;;;2.33;1.92;;;19.70;58.90;;;;;;5014931;28;20168;-29
2023/05/10 00:25:51;;;;;;;1.95;1.77;;;19.10;75.70;;;;;;5015026;28;20129;-29
2023/05/10 00:28:18;;;;;;;2.22;1.88;;;;;;;;;;5015387;28;20128;-30
2023/05/10 00:30:45;;;;;;;2.42;2.00;;;19.80;76.40;;;;;;5015003;28;20054;-29
2023/05/10 00:33:12;;;;;;;2.10;1.90;;;19.50;75.50;;;;;;5015119;28;20056;-29
2023/05/10 00:35:39;;;;;;;2.20;2.00;;;19.90;69.90;;;;;;5014712;28;20057;-29
2023/05/10 00:38:06;;;;;;;2.67;2.13;;;;;;;;;;5014554;28;20077;-29
2023/05/10 00:40:34;;;;;;;2.33;1.95;;;19.60;58.80;;;;;;5015239;28;20061;-30
2023/05/10 00:43:01;;;;;;;2.05;1.85;;;;;;;;;;5014411;28;20490;-29
2023/05/10 00:45:28;;;;;;;1.77;1.60;;;19.90;76.30;;;;;;5014872;28;20482;-29
2023/05/10 00:47:55;;;;;;;2.22;2.03;;;19.40;75.40;;;;;;5014957;28;20129;-29
2023/05/10 00:50:22;;;;;;;2.10;1.90;;;19.40;75.50;;;;;;5014846;28;20065;-29
2023/05/10 00:52:49;;;;;;;2.33;2.10;;;;;;;;;;5014314;28;20054;-30
2023/05/10 00:55:16;;;;;;;2.35;2.00;;;;;;;;;;5014920;28;20061;-29
2023/05/10 00:57:44;;;;;;;2.42;2.10;;;19.60;58.80;;;;;;5014738;28;20145;-30
2023/05/10 01:00:12;;;;;;;1.90;1.70;;;19.60;58.80;;;;;;5014493;28;20069;-30
2023/05/10 01:02:39;;;;;;;2.15;1.85;;;20.00;76.60;;;;;;5014568;28;20049;-29
2023/05/10 01:05:06;;;;;;;1.90;1.70;;;18.80;66.50;;;;;;5014278;28;20526;-29
2023/05/10 01:07:33;;;;;;;2.20;1.88;;;;;;;;;;5014486;28;20053;-30
2023/05/10 01:10:00;;;;;;;2.55;1.80;;;19.40;75.40;;;;;;5014519;28;20133;-29
2023/05/10 01:12:27;;;;;;;2.03;1.73;;;;;;;;;;5014229;28;20049;-29
2023/05/10 01:14:55;;;;;;;1.80;1.60;;;19.20;75.30;;;;;;5014656;28;20050;-29
2023/05/10 01:17:22;;;;;;;2.42;1.90;;;19.70;76.30;;;;;;5014505;28;20072;-30
2023/05/10 01:19:49;;;;;;;2.67;1.55;;;;;;;;;;5013967;28;20133;-29
2023/05/10 01:22:48;;;;;;;1.63;1.52;;;19.60;61.40;;;;;;5013435;28;20059;-29
2023/05/10 01:25:30;;;;;;;2.60;1.70;;;20.50;76.40;;;;;;5014626;28;20046;-29
2023/05/10 01:28:35;;;;;;;1.60;1.50;;;19.70;76.20;;;;;;5014411;28;20132;-29
2023/05/10 01:31:15;;;;;;;1.92;1.60;;;19.60;58.60;;;;;;5005964;28;20056;-30
2023/05/10 01:33:45;;;;;;;1.50;1.40;;;19.10;75.60;;;;;;5013586;28;20046;-29
2023/05/10 01:36:16;;;;;;;2.20;1.70;;;19.60;58.60;;;;;;5013721;28;20100;-30
2023/05/10 01:38:44;;;;;;;1.70;1.58;;;19.10;60.60;;;;;;5012997;28;20140;-29
2023/05/10 01:41:14;;;;;;;1.65;1.55;;;19.50;58.50;;;;;;5013630;28;20073;-30
2023/05/10 01:43:46;;;;;;;1.40;1.30;;;19.60;58.50;;;;;;5013649;28;20057;-29
2023/05/10 01:46:17;;;;;;;2.05;1.60;;;19.50;58.50;;;;;;5013849;28;20069;-30
2023/05/10 01:48:48;;;;;;;1.70;1.60;;;19.50;58.40;;;;;;5013716;28;20048;-29
2023/05/10 01:51:15;;;;;;;1.50;1.40;;;19.50;58.40;;;;;;5013599;28;20590;-30
2023/05/10 01:53:42;;;;;;;1.73;1.35;;;19.40;75.80;;;;;;5013459;28;20050;-29
2023/05/10 01:56:09;;;;;;;1.73;1.50;;;;;;;;;;5013645;28;20056;-30
2023/05/10 01:58:36;;;;;;;1.50;1.40;;;19.40;75.00;;;;;;5013434;28;20133;-29
2023/05/10 02:01:04;;;;;;;1.73;1.45;;;18.70;75.40;;;;;;5013882;28;20125;-29
2023/05/10 02:03:31;;;;;;;1.60;1.50;;;19.00;75.50;;;;;;5012850;28;20128;-29
2023/05/10 02:05:59;;;;;;;1.60;1.42;;;19.50;58.30;;;;;;5013610;28;20057;-30
2023/05/10 02:08:25;;;;;;;1.70;1.60;;;19.40;61.30;;;;;;5013339;28;20054;-30
2023/05/10 02:10:53;;;;;;;1.58;1.48;;;19.50;58.30;;;;;;5013570;28;20049;-29
2023/05/10 02:13:20;;;;;;;1.80;1.38;;;19.90;72.30;;;;;;5012920;28;20053;-30
2023/05/10 02:15:48;;;;;;;2.65;1.52;;;20.50;76.20;;;;;;5012939;28;20124;-29
2023/05/10 02:18:15;;;;;;;2.10;1.52;;;19.80;75.40;;;;;;5013004;28;20041;-29
2023/05/10 02:20:42;;;;;;;1.30;1.20;;;;;;;;;;4995577;28;20062;-31
2023/05/10 02:23:10;;;;;;;1.77;1.50;;;19.50;72.60;;;;;;5012986;28;20060;-29
2023/05/10 02:25:38;;;;;;;1.70;1.48;;;;;;;;;;5013297;28;20417;-29
2023/05/10 02:28:05;;;;;;;1.60;1.50;;;20.40;75.80;;;;;;5013229;28;20049;-29
2023/05/10 02:30:32;;;;;;;1.40;1.23;;;19.80;72.30;;;;;;5012711;28;20129;-30
2023/05/10 02:32:59;;;;;;;1.50;1.35;;;;;;;;;;5012887;28;20133;-29
2023/05/10 02:35:27;;;;;;;1.58;1.45;;;19.50;60.80;;;;;;4995297;28;20076;-30
2023/05/10 02:37:53;;;;;;;1.60;1.50;;;19.50;60.90;;;;;;5012100;28;20495;-29
2023/05/10 02:40:21;;;;;;;1.70;1.52;;;19.50;58.20;;;;;;5012722;28;20132;-30
2023/05/10 02:42:49;;;;;;;1.70;1.50;;;;;;;;;;5012633;28;20486;-30
2023/05/10 02:45:19;;;;;;;1.60;1.40;;;19.90;75.00;;;;;;5012450;28;20053;-29
2023/05/10 02:47:46;;;;;;;1.67;1.50;;;19.60;75.90;;;;;;5012633;28;20042;-29
2023/05/10 02:50:13;;;;;;;1.50;1.40;;;;;;;;;;5012437;28;20046;-31
2023/05/10 02:52:41;;;;;;;1.60;1.50;;;19.40;74.80;;;;;;5012701;28;20057;-29
2023/05/10 02:55:08;;;;;;;1.50;1.40;;;19.00;63.50;;;;;;5012490;28;20049;-29
2023/05/10 02:57:36;;;;;;;1.50;1.40;;;19.30;60.50;;;;;;5012740;28;20134;-29
2023/05/10 03:00:04;;;;;;;1.20;1.10;;;19.10;68.60;;;;;;5012658;28;20058;-30
2023/05/10 03:02:30;;;;;;;1.85;1.45;;;19.50;76.00;;;;;;5012119;28;20145;-29
2023/05/10 03:04:57;;;;;;;1.48;1.30;;;;;;;;;;5012761;28;20052;-30
2023/05/10 03:07:24;;;;;;;1.42;1.33;;;;;;;;;;5012243;28;20058;-30
2023/05/10 03:09:51;;;;;;;1.70;1.40;;;19.10;62.20;;;;;;5012454;28;20554;-30
2023/05/10 03:12:23;;;;;;;2.63;1.42;;;19.40;58.10;;;;;;5011733;28;20140;-30
2023/05/10 03:14:55;;;;;;;1.40;1.30;;;19.90;75.10;;;;;;5012367;28;20046;-29
2023/05/10 03:17:24;;;;;;;1.42;1.20;;;18.90;70.80;;;;;;5012071;28;20476;-29
2023/05/10 03:19:54;;;;;;;1.48;1.38;;;19.40;75.30;;;;;;5012041;28;20137;-30
2023/05/10 03:22:24;;;;;;;1.58;1.25;;;18.20;72.10;;;;;;5012097;28;20066;-30
2023/05/10 03:24:51;;;;;;;1.45;1.30;;;19.90;63.10;;;;;;5010959;28;20057;-30
2023/05/10 03:27:18;;;;;;;1.17;1.08;;;19.50;63.20;;;;;;5012217;28;20141;-30
2023/05/10 03:29:46;;;;;;;1.27;1.17;;;;;;;;;;5012061;28;20483;-30
2023/05/10 03:32:14;;;;;;;1.30;1.20;;;19.80;75.10;;;;;;5011701;28;20471;-30
2023/05/10 03:34:42;;;;;;;1.40;1.30;;;19.50;75.90;;;;;;5012138;28;20129;-30
2023/05/10 03:37:09;;;;;;;1.20;1.10;;;19.30;75.30;;;;;;5011426;28;20041;-30
2023/05/10 03:39:35;;;;;;;1.30;1.20;;;20.30;75.50;;;;;;5011891;28;20078;-30
2023/05/10 03:42:02;;;;;;;1.23;1.13;;;19.90;66.30;;;;;;5011672;28;20133;-30
2023/05/10 03:44:29;;;;;;;1.30;1.20;;;19.70;74.90;;;;;;5012084;28;20124;-30
2023/05/10 03:46:56;;;;;;;1.33;1.23;;;20.00;75.80;;;;;;5011894;28;20519;-30
2023/05/10 03:49:24;;;;;;;1.33;1.20;;;19.20;75.20;;;;;;4994526;28;20439;-30
2023/05/10 03:51:51;;;;;;;1.60;1.23;;;18.90;66.00;;;;;;5011709;28;20133;-30
2023/05/10 03:54:18;;;;;;;1.27;1.17;;;19.30;75.30;;;;;;5011673;28;20049;-30
2023/05/10 03:56:46;;;;;;;1.50;1.30;;;;;;;;;;5011825;28;20072;-30
2023/05/10 03:59:13;;;;;;;1.70;1.23;;;;;;;;;;5011445;28;20798;-30
2023/05/10 04:01:40;;;;;;;1.42;1.27;;;;;;;;;;5011825;28;20125;-30
2023/05/10 04:04:07;;;;;;;1.30;1.20;;;;;;;;;;5011966;28;20072;-30
2023/05/10 04:06:35;;;;;;;1.30;1.20;;;19.70;75.00;;;;;;5011707;28;20046;-30
2023/05/10 04:09:04;;;;;;;1.25;1.15;;;19.60;75.20;;;;;;5011391;28;20141;-30
2023/05/10 04:11:30;;;;;;;1.55;1.27;;;19.10;73.40;;;;;;5011830;28;20057;-30
2023/05/10 04:13:57;;;;;;;1.35;1.20;;;19.40;60.20;;;;;;5011668;28;20128;-30
2023/05/10 04:16:24;;;;;;;1.98;1.10;;;19.10;75.30;;;;;;5011418;28;20056;-30
2023/05/10 04:18:50;;;;;;;1.30;1.20;;;18.60;75.30;;;;;;5011667;28;20616;-29
2023/05/10 04:21:18;;;;;;;1.50;1.30;;;;;;;;;;5011817;28;20100;-30
2023/05/10 04:23:46;;;;;;;1.33;1.10;;;19.30;74.60;;;;;;5010807;28;20156;-30
2023/05/10 04:26:13;;;;;;;1.20;1.10;;;19.40;60.10;;;;;;5011903;28;20052;-29
2023/05/10 04:28:40;;;;;;;2.28;1.30;;;19.10;74.50;;;;;;5011721;28;20128;-30
2023/05/10 04:31:07;;;;;;;1.33;1.23;;;19.30;74.90;;;;;;5011331;28;20558;-30
2023/05/10 04:33:35;;;;;;;1.35;1.10;;;;;;;;;;5011165;28;20060;-30
2023/05/10 04:36:02;;;;;;;1.50;1.27;;;;;;;;;;5011366;28;20384;-31
2023/05/10 04:38:29;;;;;;;1.50;1.30;;;19.80;75.40;;;;;;5015165;28;20128;-30
2023/05/10 04:41:04;;;;;;;1.52;1.15;;;19.30;57.90;;;;;;5014946;28;20133;-30
2023/05/10 04:43:31;;;;;;;1.20;1.10;;;;;;;;;;5014724;28;20049;-30
2023/05/10 04:45:58;;;;;;;1.75;1.20;;;19.40;75.20;;;;;;5014810;28;20125;-30
2023/05/10 04:48:24;;;;;;;1.58;1.10;;;19.50;65.70;;;;;;5015095;28;20056;-30
2023/05/10 04:50:51;;;;;;;1.30;1.20;;;;;;;;;;5014969;28;20082;-30
2023/05/10 04:53:18;;;;;;;1.17;1.08;;;;;;;;;;5014094;28;20052;-31
2023/05/10 04:55:46;;;;;;;1.40;1.20;;;19.40;61.40;;;;;;5014840;28;20133;-30
2023/05/10 04:58:14;;;;;;;1.27;1.17;;;18.80;58.90;;;;;;5014734;28;20100;-30
2023/05/10 05:00:41;;;;;;;1.10;1.00;;;;;;;;;;5014367;28;20054;-30
2023/05/10 05:03:08;;;;;;;1.40;1.30;;;18.60;74.80;;;;;;4996892;28;20388;-30
2023/05/10 05:05:35;;;;;;;1.23;1.13;;;;;;;;;;5014398;28;20136;-31
2023/05/10 05:08:01;;;;;;;1.30;1.20;;;19.40;74.80;;;;;;5015142;28;20078;-30
2023/05/10 05:10:29;;;;;;;1.30;1.20;;;;;;;;;;5014685;28;20050;-30
2023/05/10 05:12:56;;;;;;;1.23;1.10;;;;;;;;;;5014080;28;20498;-31
2023/05/10 05:15:24;;;;;;;1.35;1.23;;;19.80;63.20;;;;;;5014441;28;20141;-30
2023/05/10 05:17:51;;;;;;;1.10;1.00;;;18.70;61.90;;;;;;5014415;28;20557;-30
2023/05/10 05:20:18;;;;;;;1.40;1.08;;;19.00;74.50;;;;;;5014362;28;20136;-30
2023/05/10 05:22:45;;;;;;;1.27;1.10;;;;;;;;;;5013662;28;20478;-30
2023/05/10 05:25:12;;;;;;;1.30;1.00;;;19.70;76.00;;;;;;5014464;28;20056;-30
2023/05/10 05:27:39;;;;;;;1.13;1.02;;;18.40;74.30;;;;;;5013958;28;20126;-30
2023/05/10 05:30:07;;;;;;;1.30;1.00;;;19.00;64.80;;;;;;5014286;28;20133;-30
2023/05/10 05:32:35;;;;;;;1.23;1.10;;;19.20;57.80;;;;;;5013533;28;20057;-30
2023/05/10 05:35:02;;;;;;;1.42;1.15;;;19.10;66.10;;;;;;5014200;28;20113;-30
2023/05/10 05:37:28;;;;;;;1.20;1.08;;;19.10;74.70;;;;;;5013545;28;20128;-30
2023/05/10 05:39:55;;;;;;;1.10;1.00;;;18.50;74.90;;;;;;5013958;28;20654;-30
2023/05/10 05:42:22;;;;;;;1.10;1.00;;;19.30;70.20;;;;;;5013599;28;20053;-30
2023/05/10 05:44:49;;;;;;;1.35;1.15;;;19.80;75.20;;;;;;5013649;28;20125;-30
2023/05/10 05:47:15;;;;;;;1.30;1.17;;;18.90;75.20;;;;;;5013621;28;20724;-30
2023/05/10 05:49:45;;;;;;;0.88;0.88;;;20.20;64.90;;;;;;5013222;28;20137;-30
2023/05/10 05:52:12;;;;;;;1.10;1.00;;;;;;;;;;5013535;28;20049;-31
2023/05/10 05:54:39;;;;;;;1.10;1.05;;;19.40;75.00;;;;;;5013718;28;20132;-29
2023/05/10 05:57:06;;;;;;;0.95;0.93;;;19.20;74.80;;;;;;5013263;28;20046;-30
2023/05/10 05:59:33;;;;;;;0.98;0.90;;;18.60;75.40;;;;;;5013796;28;20478;-30
2023/05/10 06:02:00;;;;;;;0.98;0.88;;;;;;;;;;5012945;28;20138;-31
2023/05/10 06:04:27;;;;;;;1.20;1.10;;;18.60;60.70;;;;;;5013745;28;20390;-30
2023/05/10 06:06:55;;;;;;;1.10;1.00;;;19.40;60.40;;;;;;5013451;28;20049;-30
2023/05/10 06:09:23;;;;;;;1.17;1.00;;;;;;;;;;5013419;28;20423;-30
2023/05/10 06:11:50;;;;;;;1.10;1.00;;;;;;;;;;5013311;28;20045;-30
2023/05/10 06:14:17;;;;;;;1.10;1.00;;;18.90;64.90;;;;;;5012815;28;20129;-30
2023/05/10 06:16:43;;;;;;;0.80;0.80;;;19.10;75.60;;;;;;5013569;28;20402;-30
2023/05/10 06:19:10;;;;;;;1.63;1.10;;;19.20;75.30;;;;;;5013372;28;20086;-30
2023/05/10 06:21:37;;;;;;;1.10;1.00;;;;;;;;;;5013344;28;20501;-30
2023/05/10 06:24:06;;;;;;;1.00;0.90;;;19.10;57.70;;;;;;5012830;28;20135;-30
2023/05/10 06:26:33;;;;;;;1.00;0.90;;;;;;;;;;5013009;28;20061;-31
2023/05/10 06:29:01;;;;;;;1.70;0.90;;;19.30;75.00;;;;;;5012692;28;20045;-30
2023/05/10 06:31:27;;;;;;;1.10;1.00;;;18.80;64.50;;;;;;5012924;28;20052;-30
2023/05/10 06:33:54;;;;;;;1.10;1.00;;;19.20;75.80;;;;;;5012579;28;20520;-30
2023/05/10 06:36:21;;;;;;;1.90;1.00;;;19.90;75.70;;;;;;5011953;28;20117;-30
2023/05/10 06:38:48;;;;;;;0.98;0.90;;;18.30;75.30;;;;;;5012970;28;20133;-30
2023/05/10 06:41:16;;;;;;;1.20;1.10;;;19.00;59.00;;;;;;5005233;28;20144;-30
2023/05/10 06:43:43;;;;;;;1.00;0.90;;;18.50;75.30;;;;;;5011724;28;20128;-30
2023/05/10 06:46:10;;;;;;;2.38;1.20;;;19.30;65.40;;;;;;5012973;28;20130;-30
2023/05/10 06:48:36;;;;;;;0.80;0.80;;;19.10;75.10;;;;;;5010840;28;20103;-30
2023/05/10 06:51:03;;;;;;;0.80;0.80;;;19.10;72.10;;;;;;5008326;28;20050;-30
2023/05/10 06:53:30;;;;;;;0.70;0.70;;;18.00;66.70;;;;;;5012039;28;20054;-30
2023/05/10 06:55:57;;;;;;;0.65;0.65;;;;;;;;;;5012867;28;20056;-30
2023/05/10 06:58:25;;;;;;;0.85;0.70;;;19.20;57.70;;;;;;5011001;28;20057;-31
2023/05/10 07:00:52;;;;;;;0.70;0.70;;;;;;;;;;5012104;28;20050;-31
2023/05/10 07:03:19;;;;;;;0.70;0.70;;;18.90;75.50;;;;;;5001430;28;20121;-30
2023/05/10 07:05:46;;;;;;;0.60;0.60;;;19.60;74.80;;;;;;5007475;28;20063;-30
2023/05/10 07:08:13;;;;;;;0.70;0.70;;;19.20;62.30;;;;;;5012597;28;20121;-30
2023/05/10 07:10:39;;;;;;;0.70;0.70;;;19.90;74.80;;;;;;5012537;28;20128;-30
2023/05/10 07:13:06;;;;;;;0.50;0.50;;;20.00;75.10;;;;;;5012766;28;20085;-30
2023/05/10 07:15:34;;;;;;;0.70;0.70;;;19.50;69.30;;;;;;5012822;28;20085;-30
2023/05/10 07:18:01;;;;;;;0.40;0.40;;;20.00;74.40;;;;;;5012207;28;20411;-30
2023/05/10 07:20:28;;;;;;;1.38;0.57;;;19.70;74.10;;;;;;5012214;28;20133;-30
2023/05/10 07:22:55;;;;;;;0.50;0.50;;;;;;;;;;5011633;28;20518;-31
2023/05/10 07:25:22;;;;;;;0.60;0.60;;;18.90;73.80;;;;;;5011979;28;20495;-30
2023/05/10 07:27:49;;;;;;;0.55;0.55;;;;;;;;;;5006370;28;20121;-31
2023/05/10 07:30:16;;;;;;;0.40;0.40;;;;;;;;;;5009467;28;20053;-30
2023/05/10 07:32:44;;;;;;;0.50;0.50;;;20.10;56.60;;;;;;5008654;28;20153;-31
2023/05/10 07:35:11;;;;;;;0.40;0.40;;;;;;;;;;5009654;28;20053;-31
2023/05/10 07:37:38;;;;;;;0.40;0.40;;;20.20;59.70;;;;;;4999736;28;20054;-30
2023/05/10 07:40:06;;;;;;;0.30;0.30;;;20.00;73.20;;;;;;5011864;28;20672;-30
2023/05/10 07:42:33;;;;;;;0.32;0.32;;;20.10;57.80;;;;;;5011191;28;20053;-30
2023/05/10 07:45:00;;;;;;;0.40;0.40;;;19.90;60.30;;;;;;5007381;28;20587;-30
2023/05/10 07:47:26;;;;;;;0.65;0.50;;;20.40;73.30;;;;;;5011134;28;20042;-30
2023/05/10 07:49:54;;;;;;;0.43;0.43;;;19.40;72.30;;;;;;4992993;28;20057;-30
2023/05/10 07:52:21;;;;;;;0.40;0.40;;;20.10;73.40;;;;;;5000664;28;20117;-30
2023/05/10 07:54:48;;;;;;;0.50;0.50;;;;;;;;;;5011790;28;20060;-30
2023/05/10 07:57:17;;;;;;;0.50;0.50;;;20.20;73.00;;;;;;5012262;28;20050;-30
2023/05/10 07:59:45;;;;;;;0.50;0.50;;;;;;;;;;5011879;28;20053;-31
2023/05/10 08:02:12;;;;;;;0.40;0.40;;;;;;;;;;5011788;28;20478;-31
2023/05/10 08:04:39;;;;;;;0.30;0.30;;;20.80;72.60;;;;;;5002302;28;20406;-30
2023/05/10 08:07:07;;;;;;;0.93;0.35;;;20.70;73.00;;;;;;4993348;28;20046;-30
2023/05/10 08:09:34;;;;;;;0.30;0.30;;;20.50;72.40;;;;;;5000239;28;20056;-30
2023/05/10 08:12:01;;;;;;;0.43;0.43;;;;;;;;;;5008699;28;20494;-31
2023/05/10 08:14:29;;;;;;;0.28;0.28;;;20.60;72.50;;;;;;5015707;28;20096;-30
2023/05/10 08:16:56;;;;;;;0.32;0.32;;;20.90;72.60;;;;;;5015521;28;20132;-30
2023/05/10 08:19:23;;;;;;;1.00;0.40;;;20.10;55.30;;;;;;5009428;28;20065;-30
2023/05/10 08:21:50;;;;;;;0.30;0.30;;;21.00;72.90;;;;;;5009093;28;20045;-30
2023/05/10 08:24:19;;;;;;;0.30;0.30;;;20.90;72.90;;;;;;5015841;28;20079;-30
2023/05/10 08:26:45;;;;;;;0.30;0.30;;;21.10;73.00;;;;;;5015617;28;20133;-30
2023/05/10 08:29:12;;;;;;;0.40;0.40;;;20.90;58.10;;;;;;5009268;28;20133;-30
2023/05/10 08:31:39;;;;;;;0.30;0.30;;;;;;;;;;5004439;28;20130;-30
2023/05/10 08:34:06;;;;;;;0.30;0.30;;;20.50;72.60;;;;;;4998716;28;20060;-30
2023/05/10 08:36:33;;;;;;;0.50;0.50;;;20.50;72.70;;;;;;5011884;28;20050;-30
2023/05/10 08:38:59;;;;;;;0.40;0.40;;;20.80;61.40;;;;;;5014509;28;20145;-30
2023/05/10 08:41:27;;;;;;;0.30;0.30;;;21.00;72.50;;;;;;5015223;28;20082;-30
2023/05/10 08:43:54;;;;;;;0.40;0.40;;;20.70;72.90;;;;;;5012432;28;20133;-30
2023/05/10 08:46:22;;;;;;;0.40;0.40;;;20.50;55.60;;;;;;5014635;28;20120;-31
2023/05/10 08:48:51;;;;;;;0.45;0.40;;;19.90;60.40;;;;;;5013163;28;20478;-30
2023/05/10 08:51:18;;;;;;;0.43;0.40;;;20.50;55.70;;;;;;5014431;28;20131;-31
2023/05/10 08:53:46;;;;;;;1.05;0.60;;;;;;;;;;5014869;28;20054;-30
2023/05/10 08:56:12;;;;;;;0.73;0.50;;;20.90;60.60;;;;;;5011053;28;20524;-30
2023/05/10 08:58:40;;;;;;;0.95;0.52;;;20.80;73.60;;;;;;4993652;28;20121;-30
2023/05/10 09:01:07;;;;;;;0.50;0.50;;;20.80;72.90;;;;;;5014003;28;20130;-30
2023/05/10 09:03:34;;;;;;;0.70;0.70;;;;;;;;;;5012414;28;20594;-31
2023/05/10 09:06:01;;;;;;;0.43;0.40;;;;;;;;;;5012015;28;20157;-31
2023/05/10 09:08:30;;;;;;;0.55;0.40;;;;;;;;;;5014264;28;20121;-31
2023/05/10 09:10:57;;;;;;;0.47;0.47;;;20.50;73.00;;;;;;5014427;28;20116;-32
2023/05/10 09:13:24;;;;;;;0.77;0.50;;;19.90;73.10;;;;;;5011252;28;20042;-32
2023/05/10 09:15:52;;;;;;;0.40;0.40;;;19.90;68.80;;;;;;5013927;28;20057;-31
2023/05/10 09:18:19;;;;;;;2.05;0.50;;;20.50;73.20;;;;;;5010440;28;20125;-32
2023/05/10 09:20:46;;;;;;;0.50;0.40;;;21.30;73.40;;;;;;5014253;28;20168;-32
2023/05/10 09:23:13;;;;;;;0.63;0.50;;;19.80;64.70;;;;;;5012293;28;20455;-31
2023/05/10 09:25:40;;;;;;;1.45;0.60;;;20.50;72.60;;;;;;5012749;28;20100;-32
2023/05/10 09:28:08;;;;;;;0.70;0.60;;;20.20;56.00;;;;;;5014015;28;20049;-31
2023/05/10 09:30:35;;;;;;;0.77;0.70;;;;;;;;;;5014205;28;20046;-31
2023/05/10 09:33:03;;;;;;;0.50;0.50;;;19.10;72.10;;;;;;5013782;28;20056;-32
2023/05/10 09:35:30;;;;;;;0.95;0.68;;;20.40;72.80;;;;;;5013473;28;20042;-32
2023/05/10 09:38:00;;;;;;;0.80;0.50;;;20.00;58.40;;;;;;5013276;28;20046;-31
2023/05/10 09:40:28;;;;;;;0.65;0.63;;;20.10;56.30;;;;;;5011614;28;20120;-30
2023/05/10 09:42:55;;;;;;;0.55;0.52;;;20.00;73.80;;;;;;5012560;28;20120;-32
2023/05/10 09:45:23;;;;;;;2.60;0.60;;;19.00;56.50;;;;;;5012950;28;20083;-32
2023/05/10 09:47:50;;;;;;;0.52;0.50;;;19.90;72.20;;;;;;5005836;28;20042;-32
2023/05/10 09:50:18;;;;;;;1.48;0.70;;;20.60;74.30;;;;;;5008792;28;20417;-32
2023/05/10 09:52:49;;;;;;;0.93;0.70;;;20.40;74.20;;;;;;5004423;28;20074;-32
2023/05/10 09:55:16;;;;;;;1.52;0.60;;;;;;;;;;5012703;28;20050;-29
2023/05/10 09:57:42;;;;;;;1.13;0.70;;;19.80;63.20;;;;;;5013586;28;20128;-32
2023/05/10 10:00:10;;;;;;;0.98;0.70;;;20.50;73.90;;;;;;5013406;28;20067;-32
2023/05/10 10:02:37;;;;;;;0.82;0.60;;;20.60;73.70;;;;;;5011332;28;20053;-32
2023/05/10 10:05:04;;;;;;;1.00;0.80;;;19.80;56.60;;;;;;5011857;28;20049;-31
2023/05/10 10:07:32;;;;;;;1.65;0.60;;;19.70;73.40;;;;;;5013286;28;20121;-32
2023/05/10 10:09:59;;;;;;;1.00;0.68;;;19.80;74.40;;;;;;5013607;28;20045;-32
2023/05/10 10:12:26;;;;;;;0.73;0.57;;;19.70;62.40;;;;;;5012656;28;20136;-31
2023/05/10 10:14:53;;;;;;;1.17;0.70;;;19.90;73.30;;;;;;5013648;28;20499;-32
2023/05/10 10:17:20;;;;;;;1.10;0.88;;;19.60;73.30;;;;;;5013063;28;20050;-32
2023/05/10 10:19:47;;;;;;;1.05;0.73;;;19.70;59.70;;;;;;5013427;28;20060;-32
2023/05/10 10:22:13;;;;;;;0.77;0.68;;;19.80;73.90;;;;;;5013244;28;20054;-32
2023/05/10 10:24:41;;;;;;;1.98;1.10;;;19.80;73.50;;;;;;5013675;28;20054;-32
2023/05/10 10:27:14;;;;;;;1.50;0.80;;;19.90;56.90;;;;;;5012884;28;20133;-30
2023/05/10 10:29:45;;;;;;;1.52;0.80;;;18.70;58.20;;;;;;5006571;28;20045;-31
2023/05/10 10:32:20;;;;;;;0.95;0.80;;;19.00;63.70;;;;;;5010527;28;20178;-32
2023/05/10 10:34:47;;;;;;;;;;;19.90;58.10;;;;;;5007905;28;20046;-31
2023/05/10 10:37:13;;;;;;;1.55;0.70;;;20.10;74.00;;;;;;5009509;28;19943;-32
2023/05/10 10:39:41;;;;;;;1.13;0.80;;;19.90;74.60;;;;;;5009995;28;20042;-32
2023/05/10 10:42:08;;;;;;;0.98;0.80;;;20.20;74.20;;;;;;5012171;28;20076;-32
2023/05/10 10:44:38;;;;;;;2.60;0.70;;;19.80;57.10;;;;;;5012611;28;20445;-31
2023/05/10 10:47:24;;;;;;;2.03;0.90;;;19.90;64.20;;;;;;5010212;28;20060;-32
2023/05/10 10:49:52;;;;;;;1.00;0.73;;;19.60;73.80;;;;;;5011235;28;20041;-31
2023/05/10 10:52:23;;;;;;;2.28;1.00;;;19.80;57.20;;;;;;5003738;28;20076;-31
2023/05/10 10:55:01;;;;;;;2.20;0.70;;;20.30;74.00;;;;;;5006866;28;20049;-31
2023/05/10 10:57:29;;;;;;;0.98;0.80;;;;;;;;;;5006053;28;20042;-31
2023/05/10 11:00:24;;;;;;;1.40;1.00;;;19.70;74.70;;;;;;5011088;28;20471;-32
2023/05/10 11:02:52;;;;;;;1.35;0.80;;;19.80;57.30;;;;;;5008105;28;20060;-32
2023/05/10 11:05:26;;;;;;;2.03;0.77;;;20.10;74.90;;;;;;5006108;28;20045;-32
2023/05/10 11:07:53;;;;;;;1.63;0.80;;;;;;;;;;5006573;28;20046;-32
2023/05/10 11:10:22;;;;;;;0.73;0.70;;;20.20;71.90;;;;;;5011972;28;20056;-31
2023/05/10 11:12:55;;;;;;;0.73;0.70;;;19.90;57.30;;;;;;5010792;28;20060;-31
2023/05/10 11:15:22;;;;;;;1.50;0.88;;;;;;;;;;5012356;28;20053;-31
2023/05/10 11:17:51;;;;;;;1.85;1.00;;;19.70;74.80;;;;;;5012288;28;20124;-32
2023/05/10 11:20:22;;;;;;;1.52;0.75;;;;;;;;;;5012575;28;20454;-31
2023/05/10 11:22:52;;;;;;;0.75;0.75;;;20.30;74.60;;;;;;5011807;28;20649;-32
2023/05/10 11:25:18;;;;;;;1.13;0.98;;;20.20;68.60;;;;;;5012496;28;20137;-32
2023/05/10 11:27:47;;;;;;;1.23;0.73;;;20.00;75.20;;;;;;5012190;28;20128;-31
2023/05/10 11:30:14;;;;;;;1.83;0.80;;;19.50;74.80;;;;;;5012482;28;20073;-31
2023/05/10 11:32:41;;;;;;;0.95;0.70;;;20.50;72.60;;;;;;5011311;28;20058;-32
2023/05/10 11:35:08;;;;;;;1.27;0.70;;;19.80;75.10;;;;;;5012321;28;20046;-32
2023/05/10 11:37:35;;;;;;;1.92;0.70;;;20.40;74.40;;;;;;5011541;28;20049;-32
2023/05/10 11:40:02;;;;;;;2.58;0.80;;;19.70;74.50;;;;;;5012039;28;20052;-32
2023/05/10 11:42:29;;;;;;;1.58;0.90;;;20.00;74.10;;;;;;5012199;28;20553;-32
2023/05/10 11:44:57;;;;;;;1.35;0.98;;;19.90;57.60;;;;;;5011514;28;20049;-32
2023/05/10 11:47:24;;;;;;;1.55;0.80;;;20.20;75.30;;;;;;5011463;28;20406;-31
2023/05/10 11:49:52;;;;;;;1.23;0.90;;;19.80;57.50;;;;;;5011953;28;20128;-31
2023/05/10 11:52:19;;;;;;;3.75;0.80;;;20.50;75.10;;;;;;5011946;28;20133;-31
2023/05/10 11:54:47;;;;;;;1.77;1.00;;;19.30;74.60;;;;;;5011979;28;20084;-31
2023/05/10 11:57:13;;;;;;;1.40;1.10;;;20.00;71.60;;;;;;4993255;28;20057;-32
2023/05/10 11:59:40;;;;;;;1.17;0.90;;;19.70;74.70;;;;;;5011184;28;20038;-32
2023/05/10 12:02:08;;;;;;;2.42;1.10;;;19.80;57.50;;;;;;5011587;28;20064;-31
2023/05/10 12:04:35;;;;;;;1.52;1.00;;;;;;;;;;5012080;28;20050;-32
2023/05/10 12:07:02;;;;;;;1.40;0.90;;;19.50;74.50;;;;;;5010301;28;20646;-32
2023/05/10 12:09:29;;;;;;;1.17;1.00;;;19.50;74.50;;;;;;5011426;28;20052;-32
2023/05/10 12:11:56;;;;;;;1.05;0.80;;;19.80;57.60;;;;;;5011506;28;20125;-31
2023/05/10 12:14:24;;;;;;;1.70;0.95;;;19.60;75.10;;;;;;5010958;28;20053;-32
2023/05/10 12:16:51;;;;;;;2.08;1.05;;;;;;;;;;5011613;28;20096;-31
2023/05/10 12:19:20;;;;;;;2.58;0.93;;;20.10;75.40;;;;;;5010950;28;20061;-32
2023/05/10 12:21:47;;;;;;;1.77;1.00;;;19.80;74.90;;;;;;5011382;28;20507;-32
2023/05/10 12:24:17;;;;;;;2.15;1.05;;;;;;;;;;5011322;28;20064;-31
2023/05/10 12:26:44;;;;;;;4.65;1.33;;;;;;;;;;5011435;28;20061;-31
2023/05/10 12:29:15;;;;;;;1.70;1.05;;;19.80;57.70;;;;;;5011161;28;20240;-32
2023/05/10 12:31:55;;;;;;;1.20;1.00;;;19.80;57.60;;;;;;5011378;28;20137;-31
2023/05/10 12:34:31;;;;;;;1.88;1.10;;;19.70;57.70;;;;;;5011520;28;20056;-31
2023/05/10 12:36:58;;;;;;;1.63;1.00;;;19.40;74.10;;;;;;5003052;28;20089;-31
2023/05/10 12:39:25;;;;;;;0.80;0.75;;;;;;;;;;5011187;28;20046;-31
2023/05/10 12:41:51;;;;;;;1.60;1.00;;;20.00;67.00;;;;;;5010943;28;20491;-31
2023/05/10 12:44:18;;;;;;;3.58;1.10;;;19.40;66.90;;;;;;5011262;28;20129;-32
2023/05/10 12:46:45;;;;;;;1.95;0.90;;;;;;;;;;5011103;28;20136;-31
2023/05/10 12:49:12;;;;;;;1.63;1.00;;;19.40;75.00;;;;;;5011297;28;20574;-32
2023/05/10 12:51:40;;;;;;;1.40;1.00;;;19.70;57.70;;;;;;5011417;28;20050;-31
2023/05/10 12:54:07;;;;;;;2.00;1.00;;;;;;;;;;5010744;28;20132;-31
2023/05/10 12:56:34;;;;;;;2.95;1.20;;;;;;;;;;5011133;28;20052;-31
2023/05/10 12:59:01;;;;;;;2.95;1.45;;;;;;;;;;5014018;28;20523;-30
2023/05/10 13:01:29;;;;;;;1.40;1.15;;;19.70;57.80;;;;;;5014866;28;20529;-32
2023/05/10 13:03:56;;;;;;;1.85;1.20;;;;;;;;;;5014199;28;20052;-32
2023/05/10 13:06:22;;;;;;;2.45;1.00;;;19.40;74.90;;;;;;5014699;28;20048;-32
2023/05/10 13:08:51;;;;;;;1.55;1.10;;;19.70;57.90;;;;;;5014858;28;20137;-32
2023/05/10 13:11:19;;;;;;;1.92;1.10;;;19.60;69.50;;;;;;5013927;28;20042;-32
2023/05/10 13:13:46;;;;;;;1.52;1.10;;;20.10;65.90;;;;;;5014566;28;20053;-32